Tremont City, Ohio
Current Conditions -  °F | °C
As of 2:56 AM on Thursday 27 Nov 2014 (Local Time) from KSGH Reporting Station
Haze Haze  
Wind Chill: 21°   Ceiling: Unl
Heat Index: 26°   Visibility: 6mi
Dew Point: 24°   Wind: 5mph
Humidity: 92%   Direction: 200°SSW
Pressure: 30.07"   Gusts: NA
Location:  40.01°N, 83.84°W
Report Text: KSGH 270756Z AUTO 20004KT 6SM BR SCT027 M03/M04 A3007 RMK AO2 T10331044 SLP193 $
Loading
Personal Weather Stations






























Interactive Weather Map New forecast layout! Learn more

10-Day Weather Forecast

Advertisements
Track Severe Weather on mobile